Time;durP1;ratioP1;P1;durP2;ratioP2;P2;SDS_P1;SDS_P2;PMS_P1;PMS_P2;Temp;Humidity;BMP_temperature;BMP_pressure;BME280_temperature;BME280_humidity;BME280_pressure;Samples;Min_cycle;Max_cycle;Signal;HPM_P1;HPM_P2
2021/04/11 00:00:19;;;;;;;5.15;1.25;;;11.40;99.90;;;;;;5134422;27;20453;-71
2021/04/11 00:02:46;;;;;;;4.85;1.35;;;11.50;99.90;;;;;;5136301;27;20046;-70
2021/04/11 00:05:13;;;;;;;4.93;1.30;;;11.40;99.90;;;;;;5153463;27;20039;-71
2021/04/11 00:07:40;;;;;;;5.70;1.52;;;11.40;99.90;;;;;;5154298;27;20083;-70
2021/04/11 00:10:11;;;;;;;7.57;1.15;;;11.40;99.90;;;;;;5154663;27;20058;-71
2021/04/11 00:12:37;;;;;;;8.55;1.27;;;11.30;99.90;;;;;;5135085;27;20047;-71
2021/04/11 00:15:07;;;;;;;3.50;1.20;;;11.20;99.90;;;;;;5135617;27;20095;-71
2021/04/11 00:17:34;;;;;;;4.78;1.17;;;11.20;99.90;;;;;;5117329;27;20051;-71
2021/04/11 00:20:00;;;;;;;3.50;1.25;;;11.20;99.90;;;;;;5135449;27;20419;-71
2021/04/11 00:22:27;;;;;;;3.95;1.38;;;11.10;99.90;;;;;;5135102;27;20042;-70
2021/04/11 00:24:53;;;;;;;3.90;1.08;;;11.10;99.90;;;;;;5153330;27;20073;-70
2021/04/11 00:27:20;;;;;;;4.70;1.42;;;11.10;99.90;;;;;;5134725;27;20043;-70
2021/04/11 00:29:46;;;;;;;2.88;1.23;;;11.10;99.90;;;;;;5153552;27;20091;-71
2021/04/11 00:32:13;;;;;;;4.47;1.35;;;10.90;99.90;;;;;;5153683;27;20342;-70
2021/04/11 00:34:40;;;;;;;7.90;1.50;;;10.80;99.90;;;;;;5138275;27;20039;-71
2021/04/11 00:37:08;;;;;;;5.15;1.60;;;10.70;99.90;;;;;;5135069;27;20393;-71
2021/04/11 00:39:34;;;;;;;4.85;1.38;;;10.60;99.90;;;;;;5117929;27;20066;-71
2021/04/11 00:42:09;;;;;;;2.92;1.40;;;10.50;99.90;;;;;;5153346;27;20046;-70
2021/04/11 00:44:35;;;;;;;3.95;1.23;;;10.40;99.90;;;;;;5153608;27;20051;-71
2021/04/11 00:47:04;;;;;;;5.10;1.52;;;10.40;99.90;;;;;;5144914;27;20489;-71
2021/04/11 00:49:34;;;;;;;4.80;1.42;;;10.50;99.90;;;;;;5116289;27;20039;-71
2021/04/11 00:52:03;;;;;;;4.82;1.48;;;10.40;99.90;;;;;;5152745;27;20046;-71
2021/04/11 00:54:30;;;;;;;4.28;1.35;;;10.40;99.90;;;;;;5134165;27;20492;-71
2021/04/11 00:56:57;;;;;;;3.42;1.38;;;10.40;99.90;;;;;;5133643;27;20069;-71
2021/04/11 00:59:24;;;;;;;4.38;1.73;;;10.30;99.90;;;;;;5129868;27;20045;-71
2021/04/11 01:01:50;;;;;;;4.55;1.20;;;10.30;99.90;;;;;;5152300;27;20057;-70
2021/04/11 01:04:17;;;;;;;3.58;1.45;;;10.30;99.90;;;;;;5124941;27;20415;-71
2021/04/11 01:06:52;;;;;;;6.45;1.55;;;10.30;99.90;;;;;;5125798;27;20047;-71
2021/04/11 01:09:23;;;;;;;3.45;1.02;;;10.20;99.90;;;;;;5152193;27;20034;-71
2021/04/11 01:11:52;;;;;;;4.20;1.30;;;10.20;99.90;;;;;;5152036;27;20030;-71
2021/04/11 01:14:19;;;;;;;5.38;1.67;;;10.20;99.90;;;;;;5131833;27;20046;-71
2021/04/11 01:16:46;;;;;;;10.13;2.03;;;10.20;99.90;;;;;;5151627;27;20065;-71
2021/04/11 01:19:17;;;;;;;5.15;1.63;;;10.20;99.90;;;;;;5152577;27;20389;-71
2021/04/11 01:22:04;;;;;;;4.78;1.40;;;10.20;99.90;;;;;;5152605;27;20393;-71
2021/04/11 01:24:44;;;;;;;4.07;1.30;;;10.30;99.90;;;;;;5124618;27;20131;-71
2021/04/11 01:27:22;;;;;;;5.65;1.33;;;10.30;99.90;;;;;;5148425;27;20066;-71
2021/04/11 01:29:51;;;;;;;5.70;1.45;;;10.30;99.90;;;;;;5121592;27;20254;-71
2021/04/11 01:32:19;;;;;;;6.10;1.15;;;10.30;99.90;;;;;;5123819;27;20054;-71
2021/04/11 01:35:07;;;;;;;3.85;0.95;;;10.30;99.90;;;;;;5150376;27;20076;-71
2021/04/11 01:37:34;;;;;;;7.75;1.42;;;10.40;99.90;;;;;;5123032;27;20058;-71
2021/04/11 01:40:00;;;;;;;3.03;1.10;;;10.40;99.90;;;;;;5132738;27;20095;-70
2021/04/11 01:42:30;;;;;;;4.35;1.00;;;10.50;99.90;;;;;;5131781;27;20078;-71
2021/04/11 01:44:57;;;;;;;3.88;1.15;;;10.40;99.90;;;;;;5146052;27;20112;-71
2021/04/11 01:47:23;;;;;;;3.33;1.30;;;10.50;99.90;;;;;;5147095;27;20046;-70
2021/04/11 01:49:50;;;;;;;4.40;1.00;;;10.50;99.90;;;;;;5119673;27;20103;-71
2021/04/11 01:52:24;;;;;;;3.92;1.30;;;10.50;99.90;;;;;;5132132;27;20412;-71
2021/04/11 01:54:51;;;;;;;5.22;1.42;;;10.50;99.90;;;;;;5117747;27;20577;-71
2021/04/11 01:57:27;;;;;;;3.20;0.95;;;10.50;99.90;;;;;;5131400;27;20054;-71
2021/04/11 02:00:12;;;;;;;2.03;1.10;;;10.50;99.90;;;;;;5129358;27;20083;-71
2021/04/11 02:02:40;;;;;;;2.55;1.20;;;10.50;99.90;;;;;;5135331;27;20049;-71
2021/04/11 02:05:17;;;;;;;3.97;1.25;;;10.50;99.90;;;;;;5130093;27;20683;-71
2021/04/11 02:07:45;;;;;;;6.22;1.45;;;10.50;99.90;;;;;;5116049;27;20142;-70
2021/04/11 02:10:16;;;;;;;3.25;1.20;;;10.50;99.90;;;;;;5134705;27;20422;-71
2021/04/11 02:12:44;;;;;;;3.80;1.13;;;10.50;99.90;;;;;;5146294;27;20058;-71
2021/04/11 02:15:18;;;;;;;3.80;1.15;;;10.40;99.90;;;;;;5149276;27;20034;-71
2021/04/11 02:17:46;;;;;;;3.92;1.25;;;10.40;99.90;;;;;;5128717;27;20038;-71
2021/04/11 02:20:13;;;;;;;3.58;0.90;;;10.50;99.90;;;;;;5109640;27;20491;-71
2021/04/11 02:22:41;;;;;;;3.90;1.45;;;10.50;99.90;;;;;;5149527;27;20523;-71
2021/04/11 02:25:14;;;;;;;5.45;1.08;;;10.50;99.90;;;;;;5128232;27;20126;-71
2021/04/11 02:27:41;;;;;;;3.55;1.05;;;10.60;99.90;;;;;;5132684;27;20134;-71
2021/04/11 02:30:11;;;;;;;3.53;1.20;;;10.60;99.90;;;;;;5132715;27;20043;-71
2021/04/11 02:32:38;;;;;;;3.63;1.23;;;10.50;99.90;;;;;;5150477;27;20495;-71
2021/04/11 02:35:08;;;;;;;4.60;1.10;;;10.60;99.90;;;;;;5127516;27;20103;-71
2021/04/11 02:37:37;;;;;;;2.45;0.90;;;10.50;99.90;;;;;;5145656;27;20049;-71
2021/04/11 02:40:08;;;;;;;3.90;1.30;;;10.50;99.90;;;;;;5131680;27;20460;-71
2021/04/11 02:42:36;;;;;;;2.22;1.10;;;10.50;99.90;;;;;;5151514;27;20326;-71
2021/04/11 02:45:14;;;;;;;4.20;1.10;;;10.50;99.90;;;;;;5142054;27;20038;-71
2021/04/11 02:47:40;;;;;;;3.58;1.30;;;10.40;99.90;;;;;;5149306;27;20049;-71
2021/04/11 02:50:08;;;;;;;4.18;1.13;;;10.40;99.90;;;;;;5130533;27;20180;-71
2021/04/11 02:52:42;;;;;;;3.90;1.38;;;10.40;99.90;;;;;;5151949;27;20088;-70
2021/04/11 02:55:13;;;;;;;3.65;1.13;;;10.40;99.90;;;;;;5145928;27;20810;-71
2021/04/11 02:57:39;;;;;;;5.28;1.33;;;10.20;99.90;;;;;;5130826;27;20042;-71
2021/04/11 03:00:10;;;;;;;3.50;1.02;;;10.10;99.90;;;;;;5131246;27;20055;-71
2021/04/11 03:02:37;;;;;;;7.63;1.98;;;10.10;99.90;;;;;;5147334;27;20099;-71
2021/04/11 03:05:06;;;;;;;9.70;2.00;;;10.10;99.90;;;;;;5149112;27;20064;-71
2021/04/11 03:07:44;;;;;;;5.88;1.45;;;10.00;99.90;;;;;;5131763;27;20043;-71
2021/04/11 03:10:18;;;;;;;5.53;1.15;;;10.00;99.90;;;;;;5148619;27;20079;-71
2021/04/11 03:12:46;;;;;;;9.88;1.17;;;10.00;99.90;;;;;;5150087;27;20043;-70
2021/04/11 03:15:14;;;;;;;4.72;1.38;;;10.00;99.90;;;;;;5118109;27;20130;-71
2021/04/11 03:17:41;;;;;;;4.82;1.50;;;9.90;99.90;;;;;;5129715;27;20319;-71
2021/04/11 03:20:19;;;;;;;4.95;1.00;;;9.90;99.90;;;;;;5112715;27;20138;-71
2021/04/11 03:22:46;;;;;;;4.40;1.13;;;9.90;99.90;;;;;;5149485;27;20442;-71
2021/04/11 03:25:13;;;;;;;5.07;1.67;;;9.80;99.90;;;;;;5151610;27;20042;-70
2021/04/11 03:27:45;;;;;;;3.53;1.17;;;9.90;99.90;;;;;;5125252;27;20053;-71
2021/04/11 03:30:18;;;;;;;5.60;1.52;;;9.90;99.90;;;;;;5124275;27;20476;-71
2021/04/11 03:32:54;;;;;;;7.85;1.80;;;9.90;99.90;;;;;;5147906;27;20047;-70
2021/04/11 03:35:25;;;;;;;5.93;1.35;;;9.90;99.90;;;;;;5148930;27;20076;-71
2021/04/11 03:37:55;;;;;;;5.68;1.13;;;9.90;99.90;;;;;;5148946;27;20050;-71
2021/04/11 03:40:27;;;;;;;5.25;1.23;;;9.90;99.90;;;;;;5147372;27;20342;-71
2021/04/11 03:42:59;;;;;;;3.23;1.10;;;9.80;99.90;;;;;;5129894;27;20038;-71
2021/04/11 03:45:29;;;;;;;2.65;1.10;;;9.80;99.90;;;;;;5128896;27;20303;-71
2021/04/11 03:48:05;;;;;;;6.53;1.38;;;9.90;99.90;;;;;;5147677;27;20123;-71
2021/04/11 03:50:38;;;;;;;3.10;1.05;;;9.90;99.90;;;;;;5149171;27;20039;-71
2021/04/11 03:53:11;;;;;;;4.13;1.20;;;9.80;99.90;;;;;;5129509;27;20515;-71
2021/04/11 03:55:49;;;;;;;4.18;1.00;;;9.90;99.90;;;;;;5141996;27;20182;-70
2021/04/11 03:58:26;;;;;;;5.28;1.17;;;9.90;99.90;;;;;;5131253;27;20071;-71
2021/04/11 04:00:56;;;;;;;3.95;1.42;;;10.00;99.90;;;;;;5148920;27;20039;-71
2021/04/11 04:03:27;;;;;;;5.97;1.30;;;9.90;99.90;;;;;;5132230;27;20427;-71
2021/04/11 04:05:55;;;;;;;8.10;1.50;;;9.90;99.90;;;;;;5122350;28;20512;-70
2021/04/11 04:08:21;;;;;;;5.38;1.30;;;9.90;99.90;;;;;;5145751;27;20100;-71
2021/04/11 04:11:05;;;;;;;6.55;1.30;;;9.90;99.90;;;;;;5127691;27;20042;-71
2021/04/11 04:13:49;;;;;;;7.45;1.73;;;9.80;99.90;;;;;;5146293;27;20031;-71
2021/04/11 04:16:18;;;;;;;5.60;1.60;;;9.80;99.90;;;;;;5143155;27;20050;-71
2021/04/11 04:19:02;;;;;;;5.63;1.52;;;9.80;99.90;;;;;;5149148;27;20111;-71
2021/04/11 04:21:34;;;;;;;6.88;1.60;;;9.70;99.90;;;;;;5122508;27;20676;-71
2021/04/11 04:24:06;;;;;;;4.93;1.50;;;9.80;99.90;;;;;;5133745;27;20048;-71
2021/04/11 04:27:00;;;;;;;4.05;1.42;;;9.70;99.90;;;;;;5151919;27;20103;-71
2021/04/11 04:29:35;;;;;;;5.80;1.20;;;9.70;99.90;;;;;;5143679;27;20045;-71
2021/04/11 04:32:46;;;;;;;6.85;1.42;;;9.70;99.90;;;;;;5152012;27;20049;-71
2021/04/11 04:35:35;;;;;;;5.35;1.73;;;9.70;99.90;;;;;;5111623;27;20495;-71
2021/04/11 04:38:22;;;;;;;6.75;1.70;;;9.80;99.90;;;;;;5151439;27;20044;-71
2021/04/11 04:41:10;;;;;;;3.88;1.40;;;9.90;99.90;;;;;;5148322;27;20145;-71
2021/04/11 04:44:13;;;;;;;4.25;1.40;;;9.80;99.90;;;;;;5137565;27;20031;-72
2021/04/11 04:47:24;;;;;;;18.83;1.50;;;9.90;99.90;;;;;;5144592;27;20030;-70
2021/04/11 04:50:02;;;;;;;6.72;1.20;;;9.90;99.90;;;;;;5107102;27;20074;-71
2021/04/11 04:52:47;;;;;;;4.38;1.23;;;9.90;99.90;;;;;;5100033;27;20050;-71
2021/04/11 04:55:22;;;;;;;6.75;1.17;;;9.90;99.90;;;;;;5151096;27;20182;-71
2021/04/11 04:58:13;;;;;;;4.63;1.60;;;9.80;99.90;;;;;;5117951;27;20126;-71
2021/04/11 05:00:51;;;;;;;6.82;1.50;;;9.90;99.90;;;;;;5149161;27;20125;-70
2021/04/11 05:03:37;;;;;;;8.50;1.42;;;10.00;99.90;;;;;;5134990;27;20038;-71
2021/04/11 05:06:31;;;;;;;5.72;2.30;;;10.00;99.90;;;;;;5131419;27;20099;-70
2021/04/11 05:09:01;;;;;;;;;;;10.00;99.90;;;;;;5133718;27;20047;-71
2021/04/11 05:11:41;;;;;;;3.95;0.90;;;10.00;99.90;;;;;;5145465;27;19927;-71
2021/04/11 05:14:16;;;;;;;6.63;1.40;;;9.90;99.90;;;;;;5138078;27;20039;-71
2021/04/11 05:16:48;;;;;;;6.50;1.83;;;9.90;99.90;;;;;;5128388;27;20582;-70
2021/04/11 05:19:27;;;;;;;6.13;1.30;;;10.00;99.90;;;;;;5133550;27;20049;-71
2021/04/11 05:22:11;;;;;;;6.20;1.30;;;10.00;99.90;;;;;;5133143;27;20039;-71
2021/04/11 05:24:56;;;;;;;4.07;1.05;;;10.00;99.90;;;;;;5148895;27;20098;-71
2021/04/11 05:27:25;;;;;;;5.32;1.25;;;10.00;99.90;;;;;;5132065;27;20390;-70
2021/04/11 05:30:03;;;;;;;3.90;1.00;;;10.00;99.90;;;;;;5146134;27;20373;-71
2021/04/11 05:32:30;;;;;;;4.30;1.27;;;10.10;99.90;;;;;;5146923;27;20043;-70
2021/04/11 05:34:58;;;;;;;5.55;1.77;;;10.10;99.90;;;;;;5148919;27;20039;-70
2021/04/11 05:37:45;;;;;;;3.58;1.20;;;10.10;99.90;;;;;;5152014;27;20096;-71
2021/04/11 05:40:39;;;;;;;5.38;1.25;;;10.20;99.90;;;;;;5116683;27;20513;-70
2021/04/11 05:43:16;;;;;;;8.25;2.15;;;10.30;99.90;;;;;;5115918;27;20154;-70
2021/04/11 05:45:50;;;;;;;3.30;1.00;;;10.40;99.90;;;;;;5126493;27;20104;-70
2021/04/11 05:48:46;;;;;;;6.28;1.40;;;10.40;99.90;;;;;;5141482;27;20062;-71
2021/04/11 05:51:20;;;;;;;3.53;1.30;;;10.40;99.90;;;;;;5140079;27;20103;-70
2021/04/11 05:53:55;;;;;;;9.52;1.83;;;10.40;99.90;;;;;;5145683;27;20087;-70
2021/04/11 05:56:40;;;;;;;10.93;1.35;;;10.50;99.90;;;;;;5130110;27;20463;-71
2021/04/11 05:59:19;;;;;;;11.77;1.35;;;10.50;99.90;;;;;;5149498;27;20168;-71
2021/04/11 06:01:51;;;;;;;7.80;1.45;;;10.50;99.90;;;;;;5151230;27;20054;-70
2021/04/11 06:04:20;;;;;;;5.97;1.13;;;10.60;99.90;;;;;;5149050;27;20077;-70
2021/04/11 06:06:59;;;;;;;5.93;1.60;;;10.60;99.90;;;;;;5129650;27;20039;-70
2021/04/11 06:09:42;;;;;;;3.15;1.00;;;10.60;99.90;;;;;;5147557;27;20035;-71
2021/04/11 06:12:28;;;;;;;5.70;1.45;;;10.70;99.90;;;;;;5142761;27;20043;-71
2021/04/11 06:15:01;;;;;;;4.40;1.33;;;10.70;99.90;;;;;;5150633;27;20042;-71
2021/04/11 06:17:29;;;;;;;5.85;1.55;;;10.70;99.90;;;;;;5132118;27;20066;-71
2021/04/11 06:19:56;;;;;;;4.32;1.25;;;10.70;99.90;;;;;;5130872;27;20058;-71
2021/04/11 06:22:46;;;;;;;5.88;1.45;;;10.70;99.90;;;;;;5133506;27;20095;-71
2021/04/11 06:25:36;;;;;;;6.20;1.42;;;10.70;99.90;;;;;;5142202;27;20104;-70
2021/04/11 06:28:15;;;;;;;7.18;1.65;;;10.70;99.90;;;;;;5135478;27;20031;-71
2021/04/11 06:31:05;;;;;;;5.28;1.67;;;10.80;99.90;;;;;;5140022;27;20041;-71
2021/04/11 06:33:37;;;;;;;3.97;1.08;;;10.90;99.90;;;;;;5150482;27;20042;-71
2021/04/11 06:36:09;;;;;;;10.95;1.90;;;10.90;99.90;;;;;;5121170;27;20118;-71
2021/04/11 06:38:44;;;;;;;9.48;1.70;;;10.90;99.90;;;;;;5137692;27;20480;-71
2021/04/11 06:41:29;;;;;;;8.13;1.70;;;11.00;99.90;;;;;;5122317;27;20052;-71
2021/04/11 06:44:17;;;;;;;6.03;1.70;;;11.00;99.90;;;;;;5117454;27;20484;-71
2021/04/11 06:47:34;;;;;;;5.95;1.83;;;11.20;99.90;;;;;;5138320;27;20034;-70
2021/04/11 06:50:24;;;;;;;6.38;1.65;;;11.40;99.90;;;;;;5134251;27;20063;-71
2021/04/11 06:53:16;;;;;;;5.85;1.55;;;11.70;99.90;;;;;;5132749;27;20141;-71
2021/04/11 06:55:59;;;;;;;7.03;1.90;;;11.70;99.90;;;;;;5139948;27;20112;-70
2021/04/11 06:58:37;;;;;;;5.07;1.45;;;11.70;99.90;;;;;;5134520;27;20042;-71
2021/04/11 07:01:23;;;;;;;6.70;1.70;;;11.60;99.90;;;;;;5144269;27;20066;-71
2021/04/11 07:04:22;;;;;;;6.47;1.95;;;11.70;99.90;;;;;;5150334;27;20544;-70
2021/04/11 07:07:12;;;;;;;7.45;1.70;;;11.70;99.90;;;;;;5143427;27;20046;-71
2021/04/11 07:09:42;;;;;;;6.47;2.10;;;11.60;99.90;;;;;;5149522;27;20035;-70
2021/04/11 07:12:08;;;;;;;4.85;1.20;;;11.60;99.90;;;;;;5132479;27;20509;-70
2021/04/11 07:15:01;;;;;;;5.30;1.60;;;11.50;99.90;;;;;;5121012;27;20039;-71
2021/04/11 07:17:49;;;;;;;4.40;1.35;;;11.50;99.90;;;;;;5148903;27;20047;-69
2021/04/11 07:20:55;;;;;;;7.30;1.50;;;11.50;99.90;;;;;;5147207;27;20133;-70
2021/04/11 07:23:59;;;;;;;10.73;2.03;;;11.40;99.90;;;;;;5129537;27;20446;-70
2021/04/11 07:26:34;;;;;;;4.50;1.50;;;11.50;99.90;;;;;;5129018;27;20039;-69
2021/04/11 07:29:01;;;;;;;4.80;1.30;;;11.50;99.90;;;;;;5132272;27;20589;-70
2021/04/11 07:31:52;;;;;;;7.45;1.73;;;11.40;99.90;;;;;;5124822;27;20057;-70
2021/04/11 07:34:46;;;;;;;9.50;1.50;;;11.50;99.90;;;;;;5149492;27;20500;-70
2021/04/11 07:37:23;;;;;;;7.15;2.00;;;11.70;99.90;;;;;;5147790;27;20055;-70
2021/04/11 07:40:12;;;;;;;7.45;1.80;;;11.80;99.90;;;;;;5142752;27;20084;-70
2021/04/11 07:42:42;;;;;;;6.95;1.45;;;11.80;99.90;;;;;;5118901;27;20058;-70
2021/04/11 07:45:35;;;;;;;6.07;1.30;;;11.80;99.90;;;;;;5143313;27;20043;-70
2021/04/11 07:48:26;;;;;;;6.78;1.73;;;11.70;99.90;;;;;;5150104;27;20443;-70
2021/04/11 07:51:27;;;;;;;4.78;1.30;;;11.50;99.90;;;;;;5146496;27;20153;-71
2021/04/11 07:53:54;;;;;;;7.53;1.50;;;11.60;99.90;;;;;;5103932;27;20496;-71
2021/04/11 07:56:53;;;;;;;6.30;1.48;;;11.60;99.90;;;;;;5131880;27;20454;-70
2021/04/11 07:59:39;;;;;;;4.47;1.40;;;11.60;99.90;;;;;;5132547;27;20066;-70
2021/04/11 08:02:41;;;;;;;4.43;1.67;;;11.60;99.90;;;;;;5135619;27;20043;-70
2021/04/11 08:05:19;;;;;;;6.90;1.90;;;11.60;99.90;;;;;;5116316;27;20216;-71
2021/04/11 08:08:11;;;;;;;5.97;1.60;;;11.60;99.90;;;;;;5117256;27;20054;-70
2021/04/11 08:11:15;;;;;;;5.95;1.83;;;11.80;99.90;;;;;;5155451;27;20035;-70
2021/04/11 08:13:49;;;;;;;4.80;1.42;;;11.90;99.90;;;;;;5151782;27;20050;-70
2021/04/11 08:16:40;;;;;;;3.35;1.40;;;11.80;99.90;;;;;;5152146;27;20039;-70
2021/04/11 08:19:45;;;;;;;3.92;1.88;;;11.70;99.90;;;;;;5151339;27;20039;-70
2021/04/11 08:22:40;;;;;;;5.13;1.30;;;11.60;99.90;;;;;;5136098;27;20446;-71
2021/04/11 08:25:42;;;;;;;4.35;1.10;;;11.40;99.90;;;;;;5152600;27;20118;-70
2021/04/11 08:28:21;;;;;;;6.25;1.83;;;11.40;99.90;;;;;;5121141;27;20050;-71
2021/04/11 08:30:50;;;;;;;9.82;2.30;;;11.40;99.90;;;;;;5131100;27;20039;-70
2021/04/11 08:33:45;;;;;;;8.15;2.50;;;11.30;99.90;;;;;;5117707;27;20417;-70
2021/04/11 08:36:49;;;;;;;7.22;2.08;;;11.30;99.90;;;;;;5116360;27;20089;-70
2021/04/11 08:39:51;;;;;;;5.78;1.75;;;11.30;99.90;;;;;;5148984;27;20091;-70
2021/04/11 08:42:34;;;;;;;6.85;2.05;;;11.20;99.90;;;;;;5117645;27;20096;-70
2021/04/11 08:45:35;;;;;;;5.88;1.90;;;11.10;99.90;;;;;;5134464;27;20047;-70
2021/04/11 08:48:31;;;;;;;4.20;1.55;;;11.10;99.90;;;;;;5112660;27;20063;-70
2021/04/11 08:51:44;;;;;;;9.77;2.25;;;11.20;99.90;;;;;;5143122;27;20209;-70
2021/04/11 08:54:31;;;;;;;10.83;2.93;;;11.20;99.90;;;;;;5123581;27;20054;-70
2021/04/11 08:57:02;;;;;;;6.07;1.40;;;11.20;99.90;;;;;;5147405;27;20207;-70
2021/04/11 09:00:07;;;;;;;7.57;1.75;;;11.10;99.90;;;;;;5144509;27;20051;-70
2021/04/11 09:03:05;;;;;;;5.07;1.58;;;11.30;99.90;;;;;;5124175;27;20469;-70
2021/04/11 09:06:12;;;;;;;10.10;3.65;;;11.30;99.90;;;;;;5141697;27;20359;-70
2021/04/11 09:08:59;;;;;;;5.57;1.63;;;11.30;99.90;;;;;;5123100;27;20042;-70
2021/04/11 09:12:09;;;;;;;5.80;2.17;;;11.30;99.90;;;;;;5140070;27;20442;-70
2021/04/11 09:14:53;;;;;;;9.07;2.47;;;11.30;99.90;;;;;;5116793;27;20039;-70
2021/04/11 09:17:47;;;;;;;7.38;1.63;;;11.50;99.90;;;;;;5137025;27;20054;-70
2021/04/11 09:20:16;;;;;;;6.57;1.63;;;11.60;99.90;;;;;;5144126;27;20047;-70
2021/04/11 09:23:01;;;;;;;6.97;2.00;;;11.30;99.90;;;;;;5144175;27;20058;-70
2021/04/11 09:25:32;;;;;;;7.22;1.92;;;11.20;99.90;;;;;;5147778;27;20047;-70
2021/04/11 09:28:10;;;;;;;5.72;1.85;;;11.00;99.90;;;;;;5126882;27;20039;-70
2021/04/11 09:30:46;;;;;;;3.70;1.30;;;11.00;99.90;;;;;;5124774;27;20100;-70
2021/04/11 09:33:37;;;;;;;4.65;2.10;;;10.80;99.90;;;;;;5126697;27;20039;-71
2021/04/11 09:36:29;;;;;;;5.15;1.75;;;10.80;99.90;;;;;;5142631;27;20042;-70
2021/04/11 09:39:02;;;;;;;5.03;1.98;;;10.60;99.90;;;;;;5136438;27;20038;-71
2021/04/11 09:42:06;;;;;;;9.02;2.13;;;10.60;99.90;;;;;;5122709;27;20047;-72
2021/04/11 09:44:51;;;;;;;6.60;1.70;;;10.70;99.90;;;;;;5137828;27;20043;-72
2021/04/11 09:47:20;;;;;;;5.80;1.90;;;10.70;99.90;;;;;;5146389;27;20084;-71
2021/04/11 09:50:21;;;;;;;7.35;1.90;;;10.80;99.90;;;;;;5121805;27;20055;-72
2021/04/11 09:53:12;;;;;;;9.45;1.88;;;10.70;99.90;;;;;;5118269;27;20049;-72
2021/04/11 09:56:00;;;;;;;5.40;2.05;;;10.70;99.90;;;;;;5157263;27;20038;-70
2021/04/11 09:58:35;;;;;;;13.23;2.15;;;10.60;99.90;;;;;;5138196;27;20039;-71
2021/04/11 10:01:39;;;;;;;3.83;1.48;;;10.50;99.90;;;;;;5147507;27;20516;-71
2021/04/11 10:04:42;;;;;;;4.70;1.70;;;10.30;99.90;;;;;;5120349;27;20092;-71
2021/04/11 10:07:27;;;;;;;5.10;1.60;;;10.20;99.90;;;;;;5117488;27;20396;-71
2021/04/11 10:10:22;;;;;;;5.85;2.10;;;10.10;99.90;;;;;;5137556;27;20442;-70
2021/04/11 10:13:03;;;;;;;8.75;2.53;;;10.00;99.90;;;;;;5134175;27;20073;-70
2021/04/11 10:15:47;;;;;;;9.88;3.28;;;9.80;99.90;;;;;;5135338;27;20043;-71
2021/04/11 10:18:35;;;;;;;11.73;2.75;;;9.70;99.90;;;;;;5131844;27;20047;-71
2021/04/11 10:21:12;;;;;;;7.68;3.70;;;9.60;99.90;;;;;;5129141;27;20050;-70
2021/04/11 10:24:16;;;;;;;5.72;2.80;;;9.50;99.90;;;;;;5131473;27;20104;-70
2021/04/11 10:27:01;;;;;;;7.10;3.40;;;9.50;99.90;;;;;;5125275;27;20038;-71
2021/04/11 10:29:33;;;;;;;7.22;3.10;;;9.50;99.90;;;;;;5143358;27;20103;-71
2021/04/11 10:32:26;;;;;;;5.70;2.63;;;9.50;99.90;;;;;;5115500;27;20051;-71
2021/04/11 10:35:26;;;;;;;5.95;2.25;;;9.40;99.90;;;;;;5095316;27;20073;-71
2021/04/11 10:37:55;;;;;;;9.27;3.08;;;9.50;99.90;;;;;;5137448;27;20099;-70
2021/04/11 10:40:49;;;;;;;5.82;2.72;;;9.60;99.90;;;;;;5128706;27;20043;-71
2021/04/11 10:43:44;;;;;;;6.90;2.83;;;9.60;99.90;;;;;;5140274;27;20103;-71
2021/04/11 10:46:21;;;;;;;12.68;3.88;;;9.80;99.90;;;;;;5148179;27;20043;-70
2021/04/11 10:48:53;;;;;;;6.68;3.70;;;9.90;99.90;;;;;;5142135;27;20039;-70
2021/04/11 10:51:44;;;;;;;5.53;3.20;;;10.00;99.90;;;;;;5146998;27;20034;-71
2021/04/11 10:54:19;;;;;;;10.07;3.80;;;9.90;99.90;;;;;;5139338;27;20035;-70
2021/04/11 10:57:24;;;;;;;6.63;2.55;;;9.90;99.90;;;;;;5126089;27;20435;-70
2021/04/11 11:00:14;;;;;;;6.40;3.03;;;10.00;99.90;;;;;;5148888;27;20054;-70
2021/04/11 11:03:19;;;;;;;9.45;4.55;;;9.90;99.90;;;;;;5140772;27;20035;-70
2021/04/11 11:06:22;;;;;;;12.38;6.10;;;9.90;99.90;;;;;;5126037;27;20046;-70
2021/04/11 11:09:15;;;;;;;8.23;3.97;;;10.00;99.90;;;;;;5136549;27;20513;-69
2021/04/11 11:12:00;;;;;;;4.47;2.28;;;10.30;99.90;;;;;;5125237;27;20042;-69
2021/04/11 11:15:04;;;;;;;5.30;2.08;;;10.20;99.90;;;;;;5118637;27;20043;-69
2021/04/11 11:18:00;;;;;;;4.50;2.53;;;10.20;99.90;;;;;;5141449;27;20058;-70
2021/04/11 11:20:40;;;;;;;6.43;2.60;;;10.20;99.90;;;;;;5149966;27;20051;-70
2021/04/11 11:23:36;;;;;;;5.68;3.00;;;10.10;99.90;;;;;;5131935;27;20546;-71
2021/04/11 11:26:53;;;;;;;7.00;2.90;;;10.00;99.90;;;;;;5140268;27;20130;-71
2021/04/11 11:29:43;;;;;;;6.50;2.88;;;10.00;99.90;;;;;;5113433;27;20058;-71
2021/04/11 11:32:26;;;;;;;6.10;2.80;;;10.10;99.90;;;;;;5124319;27;20138;-71
2021/04/11 11:35:01;;;;;;;4.07;2.23;;;10.10;99.90;;;;;;5131537;27;20050;-71
2021/04/11 11:37:43;;;;;;;5.65;2.22;;;10.10;99.90;;;;;;5149628;27;20046;-71
2021/04/11 11:40:13;;;;;;;5.43;1.97;;;10.10;99.90;;;;;;5136563;27;20047;-72
2021/04/11 11:43:13;;;;;;;4.32;1.90;;;10.10;99.90;;;;;;5119399;27;20530;-71
2021/04/11 11:46:03;;;;;;;5.15;1.90;;;10.20;99.90;;;;;;5142139;27;20051;-70
2021/04/11 11:48:41;;;;;;;5.15;2.10;;;10.20;99.90;;;;;;5160139;27;20055;-71
2021/04/11 11:51:30;;;;;;;4.47;2.53;;;10.20;99.90;;;;;;5142661;27;20038;-71
2021/04/11 11:54:25;;;;;;;7.50;3.92;;;10.30;99.90;;;;;;5119088;27;20051;-72
2021/04/11 11:56:51;;;;;;;4.10;2.47;;;10.40;99.90;;;;;;5140833;27;20087;-71
2021/04/11 11:59:41;;;;;;;5.68;2.25;;;10.40;99.90;;;;;;5154897;27;20061;-72
2021/04/11 12:02:13;;;;;;;5.35;2.50;;;10.50;99.90;;;;;;5143133;27;20046;-70
2021/04/11 12:04:44;;;;;;;5.72;1.92;;;10.50;99.90;;;;;;5115518;27;20050;-72
2021/04/11 12:07:44;;;;;;;4.15;1.77;;;10.50;99.90;;;;;;5120598;27;20051;-70
2021/04/11 12:10:39;;;;;;;7.57;3.13;;;10.70;99.90;;;;;;5135994;27;20046;-71
2021/04/11 12:13:41;;;;;;;2.58;1.40;;;11.00;99.90;;;;;;5137961;27;20046;-71
2021/04/11 12:16:24;;;;;;;4.30;3.05;;;11.30;99.90;;;;;;5150771;27;20035;-71
2021/04/11 12:19:09;;;;;;;;;;;11.50;99.90;;;;;;5134407;27;20168;-69
2021/04/11 12:21:44;;;;;;;5.55;2.40;;;11.70;99.90;;;;;;5146350;27;19926;-70
2021/04/11 12:24:25;;;;;;;3.20;1.67;;;11.50;99.90;;;;;;5125612;27;20487;-69
2021/04/11 12:26:55;;;;;;;3.50;1.73;;;11.30;99.90;;;;;;5121168;27;20040;-69
2021/04/11 12:29:28;;;;;;;4.93;1.70;;;11.30;99.90;;;;;;5144242;27;20058;-69
2021/04/11 12:32:25;;;;;;;4.95;2.10;;;11.40;99.90;;;;;;5144349;27;20492;-69
2021/04/11 12:35:25;;;;;;;4.45;1.75;;;11.50;99.90;;;;;;5123375;27;20039;-71
2021/04/11 12:38:00;;;;;;;3.40;1.88;;;11.50;99.90;;;;;;5151705;27;20083;-70
2021/04/11 12:40:27;;;;;;;6.50;2.40;;;11.70;99.90;;;;;;5107272;27;20042;-71
2021/04/11 12:43:18;;;;;;;4.15;1.90;;;11.70;99.90;;;;;;5145505;27;20096;-69
2021/04/11 12:46:11;;;;;;;2.92;1.60;;;11.80;99.90;;;;;;5147753;27;20103;-70
2021/04/11 12:49:08;;;;;;;2.40;1.60;;;11.60;99.90;;;;;;5131505;27;20035;-70
2021/04/11 12:51:57;;;;;;;4.03;1.73;;;11.40;99.90;;;;;;5131899;27;20043;-70
2021/04/11 12:54:30;;;;;;;2.85;1.38;;;11.20;99.90;;;;;;5145837;27;20051;-71
2021/04/11 12:57:05;;;;;;;5.75;1.95;;;11.20;99.90;;;;;;5123983;27;20500;-72
2021/04/11 12:59:41;;;;;;;3.25;2.03;;;11.10;99.90;;;;;;5127436;27;20046;-71
2021/04/11 13:02:50;;;;;;;6.38;1.77;;;11.10;99.90;;;;;;5120585;27;20496;-71
2021/04/11 13:05:29;;;;;;;3.38;2.03;;;11.20;99.90;;;;;;5121415;27;20107;-71
2021/04/11 13:08:05;;;;;;;4.57;2.17;;;11.10;99.90;;;;;;5127478;27;20110;-71
2021/04/11 13:10:55;;;;;;;8.55;4.00;;;11.00;99.90;;;;;;5140158;27;20047;-71
2021/04/11 13:13:46;;;;;;;4.55;2.03;;;10.70;99.90;;;;;;5124371;27;20050;-71
2021/04/11 13:16:36;;;;;;;5.63;2.85;;;10.60;99.90;;;;;;5147241;27;20091;-70
2021/04/11 13:19:15;;;;;;;6.38;3.03;;;10.40;99.90;;;;;;5131072;27;20114;-71
2021/04/11 13:21:54;;;;;;;4.20;2.38;;;10.30;99.90;;;;;;5122087;27;20053;-71
2021/04/11 13:24:40;;;;;;;6.63;3.03;;;10.20;99.90;;;;;;5131550;27;20071;-71
2021/04/11 13:27:24;;;;;;;4.75;2.30;;;10.10;99.90;;;;;;5132331;27;20477;-70
2021/04/11 13:30:03;;;;;;;5.03;3.30;;;10.00;99.90;;;;;;5122554;27;20054;-72
2021/04/11 13:32:41;;;;;;;5.70;3.30;;;10.00;99.90;;;;;;5147490;27;20054;-69
2021/04/11 13:35:32;;;;;;;5.13;2.80;;;9.90;99.90;;;;;;5140339;27;20172;-68
2021/04/11 13:38:20;;;;;;;5.35;2.60;;;9.90;99.90;;;;;;5144040;27;20035;-70
2021/04/11 13:40:48;;;;;;;3.95;2.72;;;9.90;99.90;;;;;;5142820;27;20054;-70
2021/04/11 13:43:41;;;;;;;6.70;3.00;;;9.90;99.90;;;;;;5148316;27;20039;-71
2021/04/11 13:46:30;;;;;;;4.55;2.90;;;9.90;99.90;;;;;;5099897;27;20050;-70
2021/04/11 13:49:50;;;;;;;8.70;3.50;;;9.80;99.90;;;;;;5129582;27;20039;-69
2021/04/11 13:52:44;;;;;;;3.63;2.30;;;9.80;99.90;;;;;;5148052;27;20062;-70
2021/04/11 13:55:34;;;;;;;5.20;2.58;;;9.90;99.90;;;;;;5131629;27;20035;-70
2021/04/11 13:58:16;;;;;;;4.88;2.72;;;10.00;99.90;;;;;;5143125;27;20050;-70